Louisville, KY (40201)

7:33 AM EST on February 26, 2017 (GMT -0500)
Clifton Heights | | Change Station

Elev 518 ft 38.26 °N, 85.70 °W | Updated 4 seconds ago

Clear
Clear
22.5 °F
Feels Like 22 °F
N
0.0
Wind Variable Wind from ENE

Today
High -- | Low -- °F
--% Chance of Precip.
Yesterday
High -- | Low -- °F
Precip. -- in
Pressure 30.24 in
Visibility 10.0 miles
Clouds Clear
Windchill 22 °F
Dew Point 18 °F
Humidity 85%
Rainfall 0.00 in
Snow Depth Not available.
7:18 AM 6:33 PM
Waning Crescent, 0% visible
METAR KLOU 261153Z 00000KT 10SM CLR M03/M08 A3023 RMK AO2 SLP240 T10331083 11006 21039 53022
Pressure 30.24 in
Visibility 10.0 miles
Clouds Clear
Windchill 22 °F
Dew Point 18 °F
Humidity 85%
Rainfall 0.00 in
Snow Depth Not available.
7:18 AM 6:33 PM
Waning Crescent, 0% visible
METAR KLOU 261153Z 00000KT 10SM CLR M03/M08 A3023 RMK AO2 SLP240 T10331083 11006 21039 53022

Get Your Daily Forecast Email!

Thanks for signing up!

Be on the lookout for a verification email in your inbox.

You'll start receiving the daily forecast at 8 AM.

×

10-Day Weather Forecast

Almanac

Astronomy

Feb. 26, 2017 Rise Set
Actual Time
Civil Twilight
Nautical Twilight
Astronomical Twilight
Moon
Length of Visible Light
Length of Day
Tomorrow will be .
, % of the Moon is Illuminated

Today's Extremes

State Highs State Lows

Community

WunderPhotos

Upload Photos

1,962,540 photos uploaded!

WunderBlog® & News

Nearby

Air Quality

  Air Quality AQ Index Pollutant
Not available.

Snow Depth

Station Depth Elevation

Earthquake Activity

City Distance Mag. Time & Date
Minimum magnitude displayed is 2.5.

Coastal Water Temperatures

Place Temperature

Stations

Nearby Weather Stations

Station Location Temp. Windchill Dew Point Humidity Wind Precip. Elev Updated Type
                   

Watches & Warnings

There are currently no watches in effect.